Bayshore, New York
Current Conditions -  °F | °C
As of 5:53 AM on Friday 31 Oct 2014 (Local Time) from KFRG Reporting Station
Overcast Overcast  
Wind Chill: 42°   Ceiling: 4600
Heat Index: 46°   Visibility: 10mi
Dew Point: 36°   Wind: 8mph
Humidity: 68%   Direction: 20°NNE
Pressure: 30"   Gusts: NA
Location:  40.7379°N, 73.2632°W
Report Text: KFRG 310953Z AUTO 02007KT 10SM OVC046 08/02 A3000 RMK AO2 SLP159 T00780022
Loading
Personal Weather Stations






























Interactive Weather Map
Tropical Storm Tracking
New forecast layout! Learn more

10-Day Weather Forecast

Advertisements
Track Severe Weather on mobile